sensor_id;sensor_type;location;lat;lon;timestamp;P1;durP1;ratioP1;P2;durP2;ratioP2
59788;SDS011;47353;51.614;5.530;2024-01-11T00:02:16;18.40;;;9.30;;
59788;SDS011;47353;51.614;5.530;2024-01-11T00:04:43;18.60;;;9.40;;
59788;SDS011;47353;51.614;5.530;2024-01-11T00:07:09;19.63;;;9.93;;
59788;SDS011;47353;51.614;5.530;2024-01-11T00:09:38;22.97;;;11.73;;
59788;SDS011;47353;51.614;5.530;2024-01-11T00:12:07;24.05;;;11.85;;
59788;SDS011;47353;51.614;5.530;2024-01-11T00:14:33;25.33;;;12.43;;
59788;SDS011;47353;51.614;5.530;2024-01-11T00:16:58;25.80;;;12.23;;
59788;SDS011;47353;51.614;5.530;2024-01-11T00:19:23;20.83;;;11.13;;
59788;SDS011;47353;51.614;5.530;2024-01-11T00:21:49;30.73;;;14.80;;
59788;SDS011;47353;51.614;5.530;2024-01-11T00:24:14;28.30;;;14.47;;
59788;SDS011;47353;51.614;5.530;2024-01-11T00:26:40;24.40;;;12.37;;
59788;SDS011;47353;51.614;5.530;2024-01-11T00:29:06;27.23;;;13.77;;
59788;SDS011;47353;51.614;5.530;2024-01-11T00:31:32;34.63;;;16.07;;
59788;SDS011;47353;51.614;5.530;2024-01-11T00:33:58;30.50;;;14.63;;
59788;SDS011;47353;51.614;5.530;2024-01-11T00:36:23;26.87;;;12.47;;
59788;SDS011;47353;51.614;5.530;2024-01-11T00:38:49;25.07;;;12.83;;
59788;SDS011;47353;51.614;5.530;2024-01-11T00:41:14;21.07;;;11.27;;
59788;SDS011;47353;51.614;5.530;2024-01-11T00:43:40;22.80;;;11.13;;
59788;SDS011;47353;51.614;5.530;2024-01-11T00:46:05;23.53;;;11.07;;
59788;SDS011;47353;51.614;5.530;2024-01-11T00:48:31;23.13;;;11.30;;
59788;SDS011;47353;51.614;5.530;2024-01-11T00:50:56;19.83;;;10.30;;
59788;SDS011;47353;51.614;5.530;2024-01-11T00:53:22;20.67;;;9.73;;
59788;SDS011;47353;51.614;5.530;2024-01-11T00:55:47;19.30;;;9.43;;
59788;SDS011;47353;51.614;5.530;2024-01-11T00:58:13;21.60;;;10.33;;
59788;SDS011;47353;51.614;5.530;2024-01-11T01:00:38;21.30;;;10.50;;
59788;SDS011;47353;51.614;5.530;2024-01-11T01:03:03;20.40;;;10.47;;
59788;SDS011;47353;51.614;5.530;2024-01-11T01:05:29;22.53;;;11.37;;
59788;SDS011;47353;51.614;5.530;2024-01-11T01:07:54;22.20;;;10.70;;
59788;SDS011;47353;51.614;5.530;2024-01-11T01:10:20;24.17;;;11.70;;
59788;SDS011;47353;51.614;5.530;2024-01-11T01:12:45;26.57;;;12.90;;
59788;SDS011;47353;51.614;5.530;2024-01-11T01:15:10;32.87;;;15.40;;
59788;SDS011;47353;51.614;5.530;2024-01-11T01:17:36;35.67;;;17.03;;
59788;SDS011;47353;51.614;5.530;2024-01-11T01:20:02;27.97;;;13.67;;
59788;SDS011;47353;51.614;5.530;2024-01-11T01:22:28;28.53;;;14.13;;
59788;SDS011;47353;51.614;5.530;2024-01-11T01:24:53;29.63;;;14.27;;
59788;SDS011;47353;51.614;5.530;2024-01-11T01:27:19;25.27;;;12.23;;
59788;SDS011;47353;51.614;5.530;2024-01-11T01:29:44;23.67;;;11.50;;
59788;SDS011;47353;51.614;5.530;2024-01-11T01:32:10;22.13;;;11.17;;
59788;SDS011;47353;51.614;5.530;2024-01-11T01:34:36;21.40;;;10.67;;
59788;SDS011;47353;51.614;5.530;2024-01-11T01:37:01;21.17;;;11.10;;
59788;SDS011;47353;51.614;5.530;2024-01-11T01:39:27;24.27;;;12.43;;
59788;SDS011;47353;51.614;5.530;2024-01-11T01:41:52;24.33;;;12.00;;
59788;SDS011;47353;51.614;5.530;2024-01-11T01:44:18;24.97;;;12.37;;
59788;SDS011;47353;51.614;5.530;2024-01-11T01:46:43;21.80;;;10.83;;
59788;SDS011;47353;51.614;5.530;2024-01-11T01:49:09;22.10;;;11.23;;
59788;SDS011;47353;51.614;5.530;2024-01-11T01:51:36;23.10;;;11.53;;
59788;SDS011;47353;51.614;5.530;2024-01-11T01:54:01;23.13;;;11.80;;
59788;SDS011;47353;51.614;5.530;2024-01-11T01:56:28;27.13;;;13.47;;
59788;SDS011;47353;51.614;5.530;2024-01-11T01:58:54;23.97;;;11.93;;
59788;SDS011;47353;51.614;5.530;2024-01-11T02:01:20;22.20;;;10.57;;
59788;SDS011;47353;51.614;5.530;2024-01-11T02:03:49;22.93;;;11.07;;
59788;SDS011;47353;51.614;5.530;2024-01-11T02:06:16;24.07;;;11.80;;
59788;SDS011;47353;51.614;5.530;2024-01-11T02:08:43;19.70;;;9.80;;
59788;SDS011;47353;51.614;5.530;2024-01-11T02:11:10;19.17;;;9.30;;
59788;SDS011;47353;51.614;5.530;2024-01-11T02:13:36;20.63;;;10.50;;
59788;SDS011;47353;51.614;5.530;2024-01-11T02:16:02;19.07;;;9.37;;
59788;SDS011;47353;51.614;5.530;2024-01-11T02:18:29;18.87;;;9.10;;
59788;SDS011;47353;51.614;5.530;2024-01-11T02:20:55;22.07;;;10.67;;
59788;SDS011;47353;51.614;5.530;2024-01-11T02:23:21;24.23;;;11.67;;
59788;SDS011;47353;51.614;5.530;2024-01-11T02:25:49;25.40;;;11.83;;
59788;SDS011;47353;51.614;5.530;2024-01-11T02:28:14;26.50;;;12.97;;
59788;SDS011;47353;51.614;5.530;2024-01-11T02:30:40;27.40;;;13.10;;
59788;SDS011;47353;51.614;5.530;2024-01-11T02:33:05;28.00;;;13.70;;
59788;SDS011;47353;51.614;5.530;2024-01-11T02:35:31;29.03;;;14.13;;
59788;SDS011;47353;51.614;5.530;2024-01-11T02:37:58;30.10;;;15.03;;
59788;SDS011;47353;51.614;5.530;2024-01-11T02:40:25;33.27;;;15.23;;
59788;SDS011;47353;51.614;5.530;2024-01-11T02:42:51;28.10;;;14.13;;
59788;SDS011;47353;51.614;5.530;2024-01-11T02:45:16;27.67;;;13.60;;
59788;SDS011;47353;51.614;5.530;2024-01-11T02:47:42;27.57;;;13.13;;
59788;SDS011;47353;51.614;5.530;2024-01-11T02:50:07;25.40;;;12.10;;
59788;SDS011;47353;51.614;5.530;2024-01-11T02:52:33;28.73;;;13.00;;
59788;SDS011;47353;51.614;5.530;2024-01-11T02:54:59;30.27;;;14.43;;
59788;SDS011;47353;51.614;5.530;2024-01-11T02:57:25;31.93;;;13.80;;
59788;SDS011;47353;51.614;5.530;2024-01-11T02:59:50;30.93;;;15.20;;
59788;SDS011;47353;51.614;5.530;2024-01-11T03:02:16;29.87;;;13.40;;
59788;SDS011;47353;51.614;5.530;2024-01-11T03:04:41;27.50;;;13.80;;
59788;SDS011;47353;51.614;5.530;2024-01-11T03:07:07;28.40;;;13.47;;
59788;SDS011;47353;51.614;5.530;2024-01-11T03:09:32;27.73;;;13.47;;
59788;SDS011;47353;51.614;5.530;2024-01-11T03:11:59;25.00;;;12.43;;
59788;SDS011;47353;51.614;5.530;2024-01-11T03:14:24;24.50;;;11.47;;
59788;SDS011;47353;51.614;5.530;2024-01-11T03:16:50;29.30;;;13.73;;
59788;SDS011;47353;51.614;5.530;2024-01-11T03:19:15;36.33;;;16.77;;
59788;SDS011;47353;51.614;5.530;2024-01-11T03:21:44;36.77;;;16.87;;
59788;SDS011;47353;51.614;5.530;2024-01-11T03:24:10;33.87;;;16.20;;
59788;SDS011;47353;51.614;5.530;2024-01-11T03:26:35;31.67;;;14.47;;
59788;SDS011;47353;51.614;5.530;2024-01-11T03:29:00;29.73;;;13.40;;
59788;SDS011;47353;51.614;5.530;2024-01-11T03:31:26;27.13;;;12.60;;
59788;SDS011;47353;51.614;5.530;2024-01-11T03:33:51;27.20;;;13.00;;
59788;SDS011;47353;51.614;5.530;2024-01-11T03:36:17;24.87;;;11.70;;
59788;SDS011;47353;51.614;5.530;2024-01-11T03:38:42;24.33;;;11.37;;
59788;SDS011;47353;51.614;5.530;2024-01-11T03:41:10;23.80;;;11.57;;
59788;SDS011;47353;51.614;5.530;2024-01-11T03:43:36;23.90;;;12.47;;
59788;SDS011;47353;51.614;5.530;2024-01-11T03:46:02;25.50;;;12.07;;
59788;SDS011;47353;51.614;5.530;2024-01-11T03:48:28;23.97;;;11.87;;
59788;SDS011;47353;51.614;5.530;2024-01-11T03:50:54;28.33;;;12.87;;
59788;SDS011;47353;51.614;5.530;2024-01-11T03:53:19;32.90;;;15.83;;
59788;SDS011;47353;51.614;5.530;2024-01-11T03:55:45;28.90;;;13.83;;
59788;SDS011;47353;51.614;5.530;2024-01-11T03:58:10;27.63;;;12.97;;
59788;SDS011;47353;51.614;5.530;2024-01-11T04:00:36;27.73;;;12.67;;
59788;SDS011;47353;51.614;5.530;2024-01-11T04:03:01;23.93;;;11.23;;
59788;SDS011;47353;51.614;5.530;2024-01-11T04:05:27;25.33;;;11.70;;
59788;SDS011;47353;51.614;5.530;2024-01-11T04:07:52;26.53;;;12.67;;
59788;SDS011;47353;51.614;5.530;2024-01-11T04:10:18;26.67;;;11.93;;
59788;SDS011;47353;51.614;5.530;2024-01-11T04:12:44;29.53;;;14.27;;
59788;SDS011;47353;51.614;5.530;2024-01-11T04:15:11;24.43;;;12.50;;
59788;SDS011;47353;51.614;5.530;2024-01-11T04:17:38;27.70;;;13.00;;
59788;SDS011;47353;51.614;5.530;2024-01-11T04:20:04;29.97;;;14.27;;
59788;SDS011;47353;51.614;5.530;2024-01-11T04:22:30;30.17;;;14.97;;
59788;SDS011;47353;51.614;5.530;2024-01-11T04:24:56;29.87;;;14.27;;
59788;SDS011;47353;51.614;5.530;2024-01-11T04:27:21;32.10;;;14.20;;
59788;SDS011;47353;51.614;5.530;2024-01-11T04:29:47;36.60;;;15.17;;
59788;SDS011;47353;51.614;5.530;2024-01-11T04:32:12;33.63;;;15.30;;
59788;SDS011;47353;51.614;5.530;2024-01-11T04:34:37;33.83;;;15.73;;
59788;SDS011;47353;51.614;5.530;2024-01-11T04:37:03;42.13;;;17.63;;
59788;SDS011;47353;51.614;5.530;2024-01-11T04:39:28;32.33;;;15.10;;
59788;SDS011;47353;51.614;5.530;2024-01-11T04:41:54;30.37;;;13.80;;
59788;SDS011;47353;51.614;5.530;2024-01-11T04:44:19;27.70;;;12.80;;
59788;SDS011;47353;51.614;5.530;2024-01-11T04:46:44;25.13;;;11.57;;
59788;SDS011;47353;51.614;5.530;2024-01-11T04:49:10;23.23;;;11.87;;
59788;SDS011;47353;51.614;5.530;2024-01-11T04:51:35;26.53;;;12.30;;
59788;SDS011;47353;51.614;5.530;2024-01-11T04:54:01;34.53;;;15.40;;
59788;SDS011;47353;51.614;5.530;2024-01-11T04:56:26;23.57;;;12.03;;
59788;SDS011;47353;51.614;5.530;2024-01-11T04:58:52;23.70;;;11.40;;
59788;SDS011;47353;51.614;5.530;2024-01-11T05:01:17;26.87;;;12.03;;
59788;SDS011;47353;51.614;5.530;2024-01-11T05:03:44;32.57;;;14.67;;
59788;SDS011;47353;51.614;5.530;2024-01-11T05:06:20;27.23;;;12.57;;
59788;SDS011;47353;51.614;5.530;2024-01-11T05:08:47;27.67;;;12.73;;
59788;SDS011;47353;51.614;5.530;2024-01-11T05:11:22;29.10;;;13.77;;
59788;SDS011;47353;51.614;5.530;2024-01-11T05:13:51;28.10;;;13.73;;
59788;SDS011;47353;51.614;5.530;2024-01-11T05:16:20;26.60;;;13.67;;
59788;SDS011;47353;51.614;5.530;2024-01-11T05:18:47;26.00;;;12.63;;
59788;SDS011;47353;51.614;5.530;2024-01-11T05:21:13;26.67;;;13.47;;
59788;SDS011;47353;51.614;5.530;2024-01-11T05:23:40;24.77;;;11.70;;
59788;SDS011;47353;51.614;5.530;2024-01-11T05:26:06;25.90;;;11.60;;
59788;SDS011;47353;51.614;5.530;2024-01-11T05:28:32;23.87;;;10.73;;
59788;SDS011;47353;51.614;5.530;2024-01-11T05:30:58;27.80;;;13.07;;
59788;SDS011;47353;51.614;5.530;2024-01-11T05:33:23;24.67;;;12.10;;
59788;SDS011;47353;51.614;5.530;2024-01-11T05:35:49;22.97;;;11.60;;
59788;SDS011;47353;51.614;5.530;2024-01-11T05:38:14;30.63;;;14.60;;
59788;SDS011;47353;51.614;5.530;2024-01-11T05:40:40;23.20;;;11.90;;
59788;SDS011;47353;51.614;5.530;2024-01-11T05:43:05;24.43;;;11.10;;
59788;SDS011;47353;51.614;5.530;2024-01-11T05:45:31;21.77;;;9.90;;
59788;SDS011;47353;51.614;5.530;2024-01-11T05:47:58;19.60;;;9.60;;
59788;SDS011;47353;51.614;5.530;2024-01-11T05:50:24;21.23;;;9.40;;
59788;SDS011;47353;51.614;5.530;2024-01-11T05:52:50;19.73;;;9.67;;
59788;SDS011;47353;51.614;5.530;2024-01-11T05:55:17;18.57;;;8.50;;
59788;SDS011;47353;51.614;5.530;2024-01-11T05:57:42;22.73;;;11.37;;
59788;SDS011;47353;51.614;5.530;2024-01-11T06:00:07;20.67;;;10.37;;
59788;SDS011;47353;51.614;5.530;2024-01-11T06:02:33;20.93;;;10.40;;
59788;SDS011;47353;51.614;5.530;2024-01-11T06:04:58;21.53;;;10.57;;
59788;SDS011;47353;51.614;5.530;2024-01-11T06:07:24;23.17;;;12.10;;
59788;SDS011;47353;51.614;5.530;2024-01-11T06:09:49;25.27;;;11.70;;
59788;SDS011;47353;51.614;5.530;2024-01-11T06:12:15;28.87;;;13.27;;
59788;SDS011;47353;51.614;5.530;2024-01-11T06:14:40;25.30;;;11.80;;
59788;SDS011;47353;51.614;5.530;2024-01-11T06:17:06;22.80;;;10.90;;
59788;SDS011;47353;51.614;5.530;2024-01-11T06:19:31;19.83;;;9.90;;
59788;SDS011;47353;51.614;5.530;2024-01-11T06:21:57;19.47;;;9.50;;
59788;SDS011;47353;51.614;5.530;2024-01-11T06:24:23;20.07;;;9.90;;
59788;SDS011;47353;51.614;5.530;2024-01-11T06:26:48;18.90;;;9.07;;
59788;SDS011;47353;51.614;5.530;2024-01-11T06:29:14;17.27;;;8.50;;
59788;SDS011;47353;51.614;5.530;2024-01-11T06:31:40;21.27;;;9.47;;
59788;SDS011;47353;51.614;5.530;2024-01-11T06:34:05;20.57;;;9.73;;
59788;SDS011;47353;51.614;5.530;2024-01-11T06:36:31;18.93;;;9.23;;
59788;SDS011;47353;51.614;5.530;2024-01-11T06:38:56;18.50;;;8.97;;
59788;SDS011;47353;51.614;5.530;2024-01-11T06:41:21;18.30;;;9.47;;
59788;SDS011;47353;51.614;5.530;2024-01-11T06:43:47;19.87;;;9.90;;
59788;SDS011;47353;51.614;5.530;2024-01-11T06:46:12;23.07;;;10.50;;
59788;SDS011;47353;51.614;5.530;2024-01-11T06:48:38;18.53;;;8.90;;
59788;SDS011;47353;51.614;5.530;2024-01-11T06:51:03;20.00;;;8.77;;
59788;SDS011;47353;51.614;5.530;2024-01-11T06:53:28;18.93;;;9.67;;
59788;SDS011;47353;51.614;5.530;2024-01-11T06:55:54;18.17;;;9.03;;
59788;SDS011;47353;51.614;5.530;2024-01-11T06:58:22;24.77;;;11.30;;
59788;SDS011;47353;51.614;5.530;2024-01-11T07:00:51;19.33;;;8.60;;
59788;SDS011;47353;51.614;5.530;2024-01-11T07:03:16;17.73;;;8.53;;
59788;SDS011;47353;51.614;5.530;2024-01-11T07:05:42;16.07;;;8.57;;
59788;SDS011;47353;51.614;5.530;2024-01-11T07:08:07;21.47;;;9.43;;
59788;SDS011;47353;51.614;5.530;2024-01-11T07:10:33;25.83;;;12.27;;
59788;SDS011;47353;51.614;5.530;2024-01-11T07:12:58;29.30;;;13.57;;
59788;SDS011;47353;51.614;5.530;2024-01-11T07:15:24;29.67;;;13.47;;
59788;SDS011;47353;51.614;5.530;2024-01-11T07:17:50;24.17;;;12.77;;
59788;SDS011;47353;51.614;5.530;2024-01-11T07:20:15;21.30;;;11.47;;
59788;SDS011;47353;51.614;5.530;2024-01-11T07:22:42;26.93;;;12.53;;
59788;SDS011;47353;51.614;5.530;2024-01-11T07:25:08;24.07;;;11.37;;
59788;SDS011;47353;51.614;5.530;2024-01-11T07:27:33;24.80;;;12.60;;
59788;SDS011;47353;51.614;5.530;2024-01-11T07:30:00;23.70;;;11.67;;
59788;SDS011;47353;51.614;5.530;2024-01-11T07:32:27;28.20;;;12.57;;
59788;SDS011;47353;51.614;5.530;2024-01-11T07:34:52;23.27;;;10.90;;
59788;SDS011;47353;51.614;5.530;2024-01-11T07:37:18;21.87;;;11.03;;
59788;SDS011;47353;51.614;5.530;2024-01-11T07:39:43;20.50;;;9.97;;
59788;SDS011;47353;51.614;5.530;2024-01-11T07:42:09;22.90;;;10.97;;
59788;SDS011;47353;51.614;5.530;2024-01-11T07:44:34;23.97;;;11.27;;
59788;SDS011;47353;51.614;5.530;2024-01-11T07:47:00;25.47;;;12.50;;
59788;SDS011;47353;51.614;5.530;2024-01-11T07:49:25;26.70;;;12.73;;
59788;SDS011;47353;51.614;5.530;2024-01-11T07:51:51;30.73;;;15.00;;
59788;SDS011;47353;51.614;5.530;2024-01-11T07:54:16;33.97;;;16.07;;
59788;SDS011;47353;51.614;5.530;2024-01-11T07:56:41;27.33;;;12.87;;
59788;SDS011;47353;51.614;5.530;2024-01-11T07:59:07;32.40;;;15.37;;
59788;SDS011;47353;51.614;5.530;2024-01-11T08:01:32;26.27;;;13.10;;
59788;SDS011;47353;51.614;5.530;2024-01-11T08:04:00;25.20;;;12.60;;
59788;SDS011;47353;51.614;5.530;2024-01-11T08:06:27;23.00;;;11.30;;
59788;SDS011;47353;51.614;5.530;2024-01-11T08:08:53;20.67;;;10.27;;
59788;SDS011;47353;51.614;5.530;2024-01-11T08:11:18;23.83;;;12.10;;
59788;SDS011;47353;51.614;5.530;2024-01-11T08:13:44;23.00;;;11.97;;
59788;SDS011;47353;51.614;5.530;2024-01-11T08:16:14;22.60;;;10.83;;
59788;SDS011;47353;51.614;5.530;2024-01-11T08:18:43;23.33;;;10.67;;
59788;SDS011;47353;51.614;5.530;2024-01-11T08:21:09;22.07;;;11.10;;
59788;SDS011;47353;51.614;5.530;2024-01-11T08:23:36;25.30;;;12.17;;
59788;SDS011;47353;51.614;5.530;2024-01-11T08:26:05;26.03;;;12.63;;
59788;SDS011;47353;51.614;5.530;2024-01-11T08:28:31;27.20;;;13.33;;
59788;SDS011;47353;51.614;5.530;2024-01-11T08:30:57;32.80;;;16.30;;
59788;SDS011;47353;51.614;5.530;2024-01-11T08:33:22;29.57;;;14.37;;
59788;SDS011;47353;51.614;5.530;2024-01-11T08:35:48;29.83;;;14.80;;
59788;SDS011;47353;51.614;5.530;2024-01-11T08:38:13;23.87;;;12.67;;
59788;SDS011;47353;51.614;5.530;2024-01-11T08:40:39;23.97;;;11.80;;
59788;SDS011;47353;51.614;5.530;2024-01-11T08:43:04;22.07;;;12.57;;
59788;SDS011;47353;51.614;5.530;2024-01-11T08:45:31;26.87;;;13.83;;
59788;SDS011;47353;51.614;5.530;2024-01-11T08:47:56;29.63;;;13.43;;
59788;SDS011;47353;51.614;5.530;2024-01-11T08:50:22;31.93;;;15.20;;
59788;SDS011;47353;51.614;5.530;2024-01-11T08:52:48;30.73;;;15.60;;
59788;SDS011;47353;51.614;5.530;2024-01-11T08:55:13;33.47;;;16.27;;
59788;SDS011;47353;51.614;5.530;2024-01-11T08:57:39;28.23;;;15.30;;
59788;SDS011;47353;51.614;5.530;2024-01-11T09:00:04;28.20;;;14.83;;
59788;SDS011;47353;51.614;5.530;2024-01-11T09:02:32;29.47;;;15.30;;
59788;SDS011;47353;51.614;5.530;2024-01-11T09:04:58;29.33;;;15.80;;
59788;SDS011;47353;51.614;5.530;2024-01-11T09:07:23;26.80;;;14.25;;
59788;SDS011;47353;51.614;5.530;2024-01-11T09:09:49;27.15;;;14.30;;
59788;SDS011;47353;51.614;5.530;2024-01-11T09:12:14;28.13;;;15.90;;
59788;SDS011;47353;51.614;5.530;2024-01-11T09:14:39;28.70;;;15.70;;
59788;SDS011;47353;51.614;5.530;2024-01-11T09:17:05;29.80;;;15.77;;
59788;SDS011;47353;51.614;5.530;2024-01-11T09:19:32;26.23;;;15.63;;
59788;SDS011;47353;51.614;5.530;2024-01-11T09:22:02;25.40;;;15.18;;
59788;SDS011;47353;51.614;5.530;2024-01-11T09:24:28;28.45;;;16.13;;
59788;SDS011;47353;51.614;5.530;2024-01-11T09:26:53;29.05;;;16.50;;
59788;SDS011;47353;51.614;5.530;2024-01-11T09:29:19;28.30;;;16.00;;
59788;SDS011;47353;51.614;5.530;2024-01-11T09:31:44;25.83;;;16.30;;
59788;SDS011;47353;51.614;5.530;2024-01-11T09:34:09;29.88;;;16.52;;
59788;SDS011;47353;51.614;5.530;2024-01-11T09:36:35;28.52;;;16.83;;
59788;SDS011;47353;51.614;5.530;2024-01-11T09:39:04;26.17;;;16.25;;
59788;SDS011;47353;51.614;5.530;2024-01-11T09:41:30;27.67;;;16.00;;
59788;SDS011;47353;51.614;5.530;2024-01-11T09:43:56;25.77;;;16.00;;
59788;SDS011;47353;51.614;5.530;2024-01-11T09:46:25;26.48;;;15.77;;
59788;SDS011;47353;51.614;5.530;2024-01-11T09:48:53;27.20;;;16.67;;
59788;SDS011;47353;51.614;5.530;2024-01-11T09:51:20;28.83;;;17.27;;
59788;SDS011;47353;51.614;5.530;2024-01-11T09:53:46;27.83;;;17.73;;
59788;SDS011;47353;51.614;5.530;2024-01-11T09:56:16;25.73;;;16.77;;
59788;SDS011;47353;51.614;5.530;2024-01-11T09:58:42;26.52;;;15.95;;
59788;SDS011;47353;51.614;5.530;2024-01-11T10:01:13;26.45;;;15.95;;
59788;SDS011;47353;51.614;5.530;2024-01-11T10:03:39;25.88;;;16.08;;
59788;SDS011;47353;51.614;5.530;2024-01-11T10:06:06;25.05;;;16.55;;
59788;SDS011;47353;51.614;5.530;2024-01-11T10:08:32;27.42;;;17.23;;
59788;SDS011;47353;51.614;5.530;2024-01-11T10:10:57;25.50;;;16.23;;
59788;SDS011;47353;51.614;5.530;2024-01-11T10:13:30;28.65;;;18.10;;
59788;SDS011;47353;51.614;5.530;2024-01-11T10:18:38;29.95;;;18.33;;
59788;SDS011;47353;51.614;5.530;2024-01-11T10:21:04;25.27;;;16.05;;
59788;SDS011;47353;51.614;5.530;2024-01-11T10:23:33;28.27;;;18.90;;
59788;SDS011;47353;51.614;5.530;2024-01-11T10:25:59;28.70;;;18.42;;
59788;SDS011;47353;51.614;5.530;2024-01-11T10:28:25;25.23;;;17.35;;
59788;SDS011;47353;51.614;5.530;2024-01-11T10:30:51;27.08;;;18.67;;
59788;SDS011;47353;51.614;5.530;2024-01-11T10:33:23;26.13;;;18.25;;
59788;SDS011;47353;51.614;5.530;2024-01-11T10:35:49;26.58;;;18.52;;
59788;SDS011;47353;51.614;5.530;2024-01-11T10:38:15;26.73;;;17.90;;
59788;SDS011;47353;51.614;5.530;2024-01-11T10:40:41;26.08;;;18.15;;
59788;SDS011;47353;51.614;5.530;2024-01-11T10:43:08;27.58;;;19.90;;
59788;SDS011;47353;51.614;5.530;2024-01-11T10:45:36;26.00;;;18.55;;
59788;SDS011;47353;51.614;5.530;2024-01-11T10:48:06;28.15;;;18.52;;
59788;SDS011;47353;51.614;5.530;2024-01-11T10:50:37;25.85;;;18.30;;
59788;SDS011;47353;51.614;5.530;2024-01-11T10:53:12;25.80;;;17.65;;
59788;SDS011;47353;51.614;5.530;2024-01-11T10:55:58;26.73;;;19.23;;
59788;SDS011;47353;51.614;5.530;2024-01-11T10:58:24;25.08;;;18.83;;
59788;SDS011;47353;51.614;5.530;2024-01-11T11:00:51;25.40;;;18.15;;
59788;SDS011;47353;51.614;5.530;2024-01-11T11:03:19;25.23;;;18.65;;
59788;SDS011;47353;51.614;5.530;2024-01-11T11:05:45;26.48;;;18.10;;
59788;SDS011;47353;51.614;5.530;2024-01-11T11:08:13;24.17;;;16.98;;
59788;SDS011;47353;51.614;5.530;2024-01-11T11:10:39;24.00;;;17.55;;
59788;SDS011;47353;51.614;5.530;2024-01-11T11:13:06;25.90;;;18.20;;
59788;SDS011;47353;51.614;5.530;2024-01-11T11:15:33;26.75;;;18.92;;
59788;SDS011;47353;51.614;5.530;2024-01-11T11:18:02;26.92;;;19.60;;
59788;SDS011;47353;51.614;5.530;2024-01-11T11:20:27;24.45;;;17.98;;
59788;SDS011;47353;51.614;5.530;2024-01-11T11:23:03;24.98;;;18.35;;
59788;SDS011;47353;51.614;5.530;2024-01-11T11:25:31;25.73;;;17.77;;
59788;SDS011;47353;51.614;5.530;2024-01-11T11:27:59;24.77;;;19.08;;
59788;SDS011;47353;51.614;5.530;2024-01-11T11:30:29;25.75;;;19.10;;
59788;SDS011;47353;51.614;5.530;2024-01-11T11:32:55;24.33;;;17.45;;
59788;SDS011;47353;51.614;5.530;2024-01-11T11:35:24;21.67;;;16.65;;
59788;SDS011;47353;51.614;5.530;2024-01-11T11:37:53;23.55;;;17.30;;
59788;SDS011;47353;51.614;5.530;2024-01-11T11:40:22;29.08;;;20.65;;
59788;SDS011;47353;51.614;5.530;2024-01-11T11:42:57;25.48;;;19.02;;
59788;SDS011;47353;51.614;5.530;2024-01-11T11:45:24;25.73;;;18.85;;
59788;SDS011;47353;51.614;5.530;2024-01-11T11:47:50;24.98;;;19.52;;
59788;SDS011;47353;51.614;5.530;2024-01-11T11:50:16;21.08;;;16.73;;
59788;SDS011;47353;51.614;5.530;2024-01-11T11:52:42;21.67;;;16.13;;
59788;SDS011;47353;51.614;5.530;2024-01-11T11:55:10;23.77;;;18.55;;
59788;SDS011;47353;51.614;5.530;2024-01-11T11:57:37;23.33;;;18.15;;
59788;SDS011;47353;51.614;5.530;2024-01-11T12:00:03;23.92;;;18.83;;
59788;SDS011;47353;51.614;5.530;2024-01-11T12:02:32;26.02;;;20.30;;
59788;SDS011;47353;51.614;5.530;2024-01-11T12:04:58;28.27;;;21.77;;
59788;SDS011;47353;51.614;5.530;2024-01-11T12:07:23;29.90;;;22.95;;
59788;SDS011;47353;51.614;5.530;2024-01-11T12:09:50;27.60;;;20.85;;
59788;SDS011;47353;51.614;5.530;2024-01-11T12:12:16;28.95;;;21.27;;
59788;SDS011;47353;51.614;5.530;2024-01-11T12:14:46;27.73;;;21.08;;
59788;SDS011;47353;51.614;5.530;2024-01-11T12:17:12;25.17;;;19.52;;
59788;SDS011;47353;51.614;5.530;2024-01-11T12:19:38;28.63;;;21.17;;
59788;SDS011;47353;51.614;5.530;2024-01-11T12:22:03;26.88;;;20.95;;
59788;SDS011;47353;51.614;5.530;2024-01-11T12:24:29;25.67;;;20.05;;
59788;SDS011;47353;51.614;5.530;2024-01-11T12:26:55;24.60;;;18.85;;
59788;SDS011;47353;51.614;5.530;2024-01-11T12:29:22;25.92;;;21.05;;
59788;SDS011;47353;51.614;5.530;2024-01-11T12:31:48;28.08;;;20.45;;
59788;SDS011;47353;51.614;5.530;2024-01-11T12:34:15;25.55;;;19.70;;
59788;SDS011;47353;51.614;5.530;2024-01-11T12:36:41;25.95;;;20.10;;
59788;SDS011;47353;51.614;5.530;2024-01-11T12:39:07;27.45;;;20.45;;
59788;SDS011;47353;51.614;5.530;2024-01-11T12:41:34;23.90;;;18.92;;
59788;SDS011;47353;51.614;5.530;2024-01-11T12:44:00;23.90;;;18.75;;
59788;SDS011;47353;51.614;5.530;2024-01-11T12:46:26;23.60;;;18.42;;
59788;SDS011;47353;51.614;5.530;2024-01-11T12:48:52;21.70;;;17.33;;
59788;SDS011;47353;51.614;5.530;2024-01-11T12:51:18;25.48;;;20.13;;
59788;SDS011;47353;51.614;5.530;2024-01-11T12:53:47;24.40;;;18.80;;
59788;SDS011;47353;51.614;5.530;2024-01-11T12:56:16;25.07;;;19.57;;
59788;SDS011;47353;51.614;5.530;2024-01-11T12:58:43;23.55;;;18.52;;
59788;SDS011;47353;51.614;5.530;2024-01-11T13:01:08;23.08;;;18.13;;
59788;SDS011;47353;51.614;5.530;2024-01-11T13:03:35;24.08;;;18.30;;
59788;SDS011;47353;51.614;5.530;2024-01-11T13:06:04;22.08;;;17.00;;
59788;SDS011;47353;51.614;5.530;2024-01-11T13:08:32;17.95;;;13.73;;
59788;SDS011;47353;51.614;5.530;2024-01-11T13:11:01;16.98;;;13.10;;
59788;SDS011;47353;51.614;5.530;2024-01-11T13:13:31;15.38;;;12.38;;
59788;SDS011;47353;51.614;5.530;2024-01-11T13:15:56;13.70;;;10.95;;
59788;SDS011;47353;51.614;5.530;2024-01-11T13:18:23;13.93;;;10.43;;
59788;SDS011;47353;51.614;5.530;2024-01-11T13:20:49;13.13;;;9.38;;
59788;SDS011;47353;51.614;5.530;2024-01-11T13:23:18;11.23;;;7.65;;
59788;SDS011;47353;51.614;5.530;2024-01-11T13:25:46;10.40;;;7.13;;
59788;SDS011;47353;51.614;5.530;2024-01-11T13:28:13;10.45;;;7.13;;
59788;SDS011;47353;51.614;5.530;2024-01-11T13:30:39;10.93;;;7.32;;
59788;SDS011;47353;51.614;5.530;2024-01-11T13:33:05;13.13;;;8.30;;
59788;SDS011;47353;51.614;5.530;2024-01-11T13:35:33;11.60;;;7.03;;
59788;SDS011;47353;51.614;5.530;2024-01-11T13:38:07;13.15;;;7.80;;
59788;SDS011;47353;51.614;5.530;2024-01-11T13:40:32;15.10;;;8.82;;
59788;SDS011;47353;51.614;5.530;2024-01-11T13:42:58;14.27;;;7.88;;
59788;SDS011;47353;51.614;5.530;2024-01-11T13:45:24;14.18;;;7.75;;
59788;SDS011;47353;51.614;5.530;2024-01-11T13:47:50;13.95;;;7.78;;
59788;SDS011;47353;51.614;5.530;2024-01-11T13:50:16;12.90;;;7.18;;
59788;SDS011;47353;51.614;5.530;2024-01-11T13:52:43;11.85;;;6.90;;
59788;SDS011;47353;51.614;5.530;2024-01-11T13:55:09;12.55;;;7.00;;
59788;SDS011;47353;51.614;5.530;2024-01-11T13:57:35;13.95;;;7.53;;
59788;SDS011;47353;51.614;5.530;2024-01-11T14:00:02;14.05;;;7.95;;
59788;SDS011;47353;51.614;5.530;2024-01-11T14:02:31;14.27;;;7.47;;
59788;SDS011;47353;51.614;5.530;2024-01-11T14:04:58;13.73;;;7.10;;
59788;SDS011;47353;51.614;5.530;2024-01-11T14:07:23;13.25;;;7.40;;
59788;SDS011;47353;51.614;5.530;2024-01-11T14:09:49;15.40;;;8.40;;
59788;SDS011;47353;51.614;5.530;2024-01-11T14:12:15;13.43;;;6.97;;
59788;SDS011;47353;51.614;5.530;2024-01-11T14:14:41;13.05;;;7.03;;
59788;SDS011;47353;51.614;5.530;2024-01-11T14:17:07;12.07;;;6.70;;
59788;SDS011;47353;51.614;5.530;2024-01-11T14:19:33;12.63;;;6.88;;
59788;SDS011;47353;51.614;5.530;2024-01-11T14:21:58;13.65;;;7.03;;